createdAt,value
2022-12-22T00:00:59.782Z,13.40
2022-12-22T00:02:00.092Z,14.10
2022-12-22T00:03:00.072Z,15.60
2022-12-22T00:03:59.901Z,12.50
2022-12-22T00:04:59.755Z,15.50
2022-12-22T00:05:59.738Z,13.60
2022-12-22T00:06:59.724Z,15.70
2022-12-22T00:07:59.745Z,14.70
2022-12-22T00:09:05.195Z,15.90
2022-12-22T00:10:01.757Z,15.90
2022-12-22T00:10:59.766Z,17.10
2022-12-22T00:11:59.744Z,23.30
2022-12-22T00:12:59.737Z,20.60
2022-12-22T00:13:59.717Z,18.30
2022-12-22T00:14:59.715Z,20.40
2022-12-22T00:15:59.693Z,19.20
2022-12-22T00:16:59.763Z,22.70
2022-12-22T00:17:59.679Z,17.90
2022-12-22T00:18:59.683Z,17.60
2022-12-22T00:19:59.650Z,18.60
2022-12-22T00:20:59.656Z,21.70
2022-12-22T00:21:59.651Z,22.50
2022-12-22T00:22:59.641Z,22.50
2022-12-22T00:23:59.691Z,22.90
2022-12-22T00:25:00.684Z,20.50
2022-12-22T00:25:59.650Z,18.10
2022-12-22T00:26:59.607Z,18.10
2022-12-22T00:27:59.620Z,19.90
2022-12-22T00:28:59.634Z,23.30
2022-12-22T00:29:59.611Z,24.80
2022-12-22T00:30:59.627Z,21.10
2022-12-22T00:31:59.581Z,21.20
2022-12-22T00:32:59.631Z,18.80
2022-12-22T00:33:59.592Z,18.60
2022-12-22T00:34:59.632Z,23.30
2022-12-22T00:35:59.567Z,28.00
2022-12-22T00:36:59.576Z,21.60
2022-12-22T00:37:59.586Z,33.20
2022-12-22T00:38:59.589Z,18.40
2022-12-22T00:39:59.532Z,19.70
2022-12-22T00:40:59.559Z,22.60
2022-12-22T00:41:59.556Z,19.50
2022-12-22T00:42:59.544Z,23.40
2022-12-22T00:43:59.528Z,17.90
2022-12-22T00:44:59.529Z,18.60
2022-12-22T00:45:59.532Z,20.80
2022-12-22T00:46:59.542Z,19.00
2022-12-22T00:47:59.527Z,21.00
2022-12-22T00:48:59.506Z,17.90
2022-12-22T00:49:59.648Z,18.70
2022-12-22T00:50:59.502Z,20.20
2022-12-22T00:51:59.548Z,17.40
2022-12-22T00:52:59.509Z,25.90
2022-12-22T00:53:59.472Z,21.20
2022-12-22T00:54:59.485Z,20.30
2022-12-22T00:55:59.461Z,30.80
2022-12-22T00:56:59.436Z,22.40
2022-12-22T00:57:59.498Z,16.00
2022-12-22T00:58:59.465Z,17.30
2022-12-22T00:59:59.434Z,13.10
2022-12-22T01:00:59.479Z,27.20
2022-12-22T01:01:59.498Z,17.10
2022-12-22T01:02:59.591Z,19.90
2022-12-22T01:03:59.418Z,15.40
2022-12-22T01:04:59.457Z,17.60
2022-12-22T01:05:59.473Z,66.20
2022-12-22T01:06:59.419Z,15.70
2022-12-22T01:07:59.396Z,30.60
2022-12-22T01:08:59.391Z,25.50
2022-12-22T01:09:59.416Z,13.50
2022-12-22T01:10:59.384Z,32.10
2022-12-22T01:11:59.402Z,21.10
2022-12-22T01:12:59.375Z,40.70
2022-12-22T01:14:00.437Z,27.60
2022-12-22T01:14:59.396Z,18.30
2022-12-22T01:15:59.451Z,16.40
2022-12-22T01:16:59.365Z,22.20
2022-12-22T01:17:59.359Z,17.60
2022-12-22T01:18:59.316Z,61.90
2022-12-22T01:19:59.320Z,13.10
2022-12-22T01:20:59.332Z,17.40
2022-12-22T01:21:59.332Z,15.00
2022-12-22T01:22:59.298Z,25.60
2022-12-22T01:23:59.288Z,134.40
2022-12-22T01:24:59.303Z,65.10
2022-12-22T01:25:59.302Z,55.10
2022-12-22T01:26:59.292Z,17.10
2022-12-22T01:27:59.267Z,25.20
2022-12-22T01:28:59.262Z,20.10
2022-12-22T01:29:59.271Z,21.30
2022-12-22T01:30:59.365Z,31.60
2022-12-22T01:31:59.252Z,39.80
2022-12-22T01:32:59.236Z,12.50
2022-12-22T01:33:59.223Z,32.70
2022-12-22T01:34:59.236Z,14.00
2022-12-22T01:35:59.227Z,23.40
2022-12-22T01:36:59.213Z,13.70
2022-12-22T01:37:59.239Z,29.40
2022-12-22T01:38:59.188Z,13.70
2022-12-22T01:39:59.228Z,19.50
2022-12-22T01:40:59.220Z,20.50
2022-12-22T01:41:59.200Z,59.20
2022-12-22T01:42:59.235Z,14.20
2022-12-22T01:44:00.180Z,13.30
2022-12-22T01:44:59.169Z,14.10
2022-12-22T01:45:59.192Z,14.50
2022-12-22T01:46:59.176Z,16.00
2022-12-22T01:47:59.161Z,12.80
2022-12-22T01:48:59.144Z,27.30
2022-12-22T01:49:59.127Z,17.90
2022-12-22T01:50:59.191Z,13.10
2022-12-22T01:51:59.129Z,15.20
2022-12-22T01:52:59.122Z,17.60
2022-12-22T01:53:59.098Z,16.00
2022-12-22T01:54:59.113Z,12.90
2022-12-22T01:55:59.093Z,11.60
2022-12-22T01:57:00.128Z,12.30
2022-12-22T01:57:59.105Z,14.70
2022-12-22T01:59:00.120Z,19.60
2022-12-22T01:59:59.101Z,11.40
2022-12-22T02:00:59.078Z,13.10
2022-12-22T02:01:59.285Z,14.00
2022-12-22T02:02:59.123Z,16.90
2022-12-22T02:03:59.187Z,13.80
2022-12-22T02:04:59.039Z,13.60
2022-12-22T02:05:59.031Z,12.20
2022-12-22T02:07:00.725Z,13.10
2022-12-22T02:08:00.080Z,15.10
2022-12-22T02:08:59.016Z,16.00
2022-12-22T02:09:59.055Z,14.20
2022-12-22T02:10:59.033Z,13.50
2022-12-22T02:11:59.024Z,14.10
2022-12-22T02:12:59.018Z,16.30
2022-12-22T02:13:58.997Z,15.90
2022-12-22T02:14:58.981Z,13.80
2022-12-22T02:15:59.017Z,15.80
2022-12-22T02:16:58.980Z,16.20
2022-12-22T02:17:58.986Z,15.40
2022-12-22T02:18:58.998Z,15.40
2022-12-22T02:19:58.945Z,14.30
2022-12-22T02:20:58.965Z,16.00
2022-12-22T02:21:58.930Z,16.00
2022-12-22T02:22:58.942Z,13.80
2022-12-22T02:23:58.934Z,15.60
2022-12-22T02:24:58.958Z,15.20
2022-12-22T02:25:58.915Z,15.60
2022-12-22T02:26:58.970Z,15.90
2022-12-22T02:27:58.905Z,15.80
2022-12-22T02:28:58.930Z,16.20
2022-12-22T02:29:58.939Z,17.60
2022-12-22T02:30:58.924Z,16.50
2022-12-22T02:31:58.915Z,15.80
2022-12-22T02:33:03.624Z,15.40
2022-12-22T02:34:00.916Z,17.20
2022-12-22T02:34:58.886Z,17.80
2022-12-22T02:35:58.871Z,18.30
2022-12-22T02:36:58.913Z,18.90
2022-12-22T02:37:58.843Z,19.20
2022-12-22T02:38:59.873Z,17.10
2022-12-22T02:39:58.850Z,18.40
2022-12-22T02:40:58.932Z,17.40
2022-12-22T02:41:58.826Z,16.60
2022-12-22T02:42:58.840Z,18.80
2022-12-22T02:43:58.828Z,18.30
2022-12-22T02:44:58.805Z,18.60
2022-12-22T02:45:58.870Z,18.10
2022-12-22T02:46:58.892Z,19.20
2022-12-22T02:47:58.800Z,19.30
2022-12-22T02:48:58.794Z,19.20
2022-12-22T02:49:58.811Z,18.10
2022-12-22T02:50:58.785Z,18.60
2022-12-22T02:51:58.749Z,18.70
2022-12-22T02:52:58.754Z,18.00
2022-12-22T02:53:58.811Z,19.70
2022-12-22T02:54:58.733Z,19.70
2022-12-22T02:55:58.867Z,17.80
2022-12-22T02:56:58.754Z,20.20
2022-12-22T02:57:58.814Z,19.60
2022-12-22T02:58:58.763Z,20.50
2022-12-22T02:59:58.725Z,19.50
2022-12-22T03:00:58.698Z,20.40
2022-12-22T03:02:00.450Z,23.50
2022-12-22T03:02:58.884Z,20.50
2022-12-22T03:03:58.749Z,21.90
2022-12-22T03:04:58.663Z,21.60
2022-12-22T03:05:58.701Z,19.90
2022-12-22T03:06:58.677Z,20.60
2022-12-22T03:08:01.853Z,20.30
2022-12-22T03:09:00.646Z,22.20
2022-12-22T03:09:58.710Z,20.20
2022-12-22T03:10:58.649Z,20.40
2022-12-22T03:11:58.623Z,20.30
2022-12-22T03:12:58.636Z,20.60
2022-12-22T03:13:58.646Z,19.30
2022-12-22T03:14:58.636Z,20.70
2022-12-22T03:15:58.617Z,20.30
2022-12-22T03:16:58.621Z,18.60
2022-12-22T03:17:58.695Z,18.20
2022-12-22T03:18:58.583Z,17.30
2022-12-22T03:19:58.597Z,18.50
2022-12-22T03:20:58.582Z,18.30
2022-12-22T03:21:58.574Z,19.20
2022-12-22T03:22:58.557Z,19.30
2022-12-22T03:23:58.580Z,17.00
2022-12-22T03:24:58.550Z,21.80
2022-12-22T03:25:58.552Z,16.10
2022-12-22T03:26:58.541Z,19.20
2022-12-22T03:27:58.560Z,20.20
2022-12-22T03:28:58.519Z,19.00
2022-12-22T03:29:58.547Z,21.70
2022-12-22T03:30:58.566Z,17.20
2022-12-22T03:31:58.542Z,19.70
2022-12-22T03:32:58.507Z,17.30
2022-12-22T03:33:58.484Z,17.60
2022-12-22T03:34:58.480Z,20.30
2022-12-22T03:35:58.515Z,18.60
2022-12-22T03:36:58.471Z,23.20
2022-12-22T03:37:58.479Z,17.50
2022-12-22T03:38:58.455Z,17.90
2022-12-22T03:39:58.457Z,22.60
2022-12-22T03:40:58.482Z,15.80
2022-12-22T03:41:58.441Z,16.70
2022-12-22T03:42:58.431Z,17.80
2022-12-22T03:43:58.420Z,15.00
2022-12-22T03:44:58.425Z,15.20
2022-12-22T03:45:58.426Z,16.90
2022-12-22T03:46:58.543Z,15.80
2022-12-22T03:47:58.394Z,16.70
2022-12-22T03:48:58.406Z,18.20
2022-12-22T03:49:58.408Z,19.10
2022-12-22T03:50:58.400Z,13.10
2022-12-22T03:51:58.382Z,15.90
2022-12-22T03:52:58.364Z,12.50
2022-12-22T03:53:58.355Z,15.00
2022-12-22T03:54:58.361Z,17.90
2022-12-22T03:56:01.309Z,17.70
2022-12-22T03:56:59.358Z,16.80
2022-12-22T03:57:58.348Z,15.40
2022-12-22T03:58:58.362Z,17.20
2022-12-22T03:59:58.348Z,18.20
2022-12-22T04:00:58.330Z,15.20
2022-12-22T04:01:58.465Z,14.80
2022-12-22T04:02:58.449Z,13.90
2022-12-22T04:03:58.297Z,11.90
2022-12-22T04:04:58.281Z,15.30
2022-12-22T04:05:58.290Z,13.80
2022-12-22T04:06:58.318Z,14.80
2022-12-22T04:07:58.305Z,12.40
2022-12-22T04:08:58.270Z,13.40
2022-12-22T04:09:58.260Z,11.90
2022-12-22T04:10:58.242Z,12.50
2022-12-22T04:11:58.244Z,14.60
2022-12-22T04:12:58.397Z,14.70
2022-12-22T04:13:58.239Z,14.10
2022-12-22T04:14:58.231Z,12.60
2022-12-22T04:15:58.252Z,12.40
2022-12-22T04:16:58.305Z,13.50
2022-12-22T04:17:58.785Z,14.10
2022-12-22T04:18:58.824Z,15.30
2022-12-22T04:19:58.196Z,15.10
2022-12-22T04:20:58.186Z,14.40
2022-12-22T04:21:58.207Z,11.00
2022-12-22T04:22:58.188Z,12.10
2022-12-22T04:23:58.178Z,13.30
2022-12-22T04:24:58.194Z,14.90
2022-12-22T04:25:58.181Z,15.10
2022-12-22T04:26:58.159Z,14.00
2022-12-22T04:27:58.154Z,12.80
2022-12-22T04:28:58.216Z,12.90
2022-12-22T04:29:58.180Z,11.30
2022-12-22T04:30:58.141Z,13.20
2022-12-22T04:31:58.187Z,14.10
2022-12-22T04:32:58.116Z,14.10
2022-12-22T04:33:58.135Z,13.10
2022-12-22T04:34:58.113Z,14.00
2022-12-22T04:35:58.111Z,11.70
2022-12-22T04:37:07.011Z,13.30
2022-12-22T04:38:00.130Z,14.50
2022-12-22T04:38:58.101Z,13.60
2022-12-22T04:39:58.078Z,14.10
2022-12-22T04:40:58.079Z,14.10
2022-12-22T04:41:58.116Z,13.10
2022-12-22T04:42:58.074Z,11.70
2022-12-22T04:43:58.058Z,13.10
2022-12-22T04:44:58.061Z,12.30
2022-12-22T04:45:58.112Z,11.20
2022-12-22T04:46:58.022Z,13.30
2022-12-22T04:47:58.038Z,11.80
2022-12-22T04:49:00.524Z,11.80
2022-12-22T04:49:59.022Z,12.00
2022-12-22T04:50:58.016Z,13.30
2022-12-22T04:51:58.013Z,14.80
2022-12-22T04:52:57.987Z,17.90
2022-12-22T04:53:58.005Z,15.30
2022-12-22T04:54:58.711Z,13.20
2022-12-22T04:55:58.001Z,12.30
2022-12-22T04:56:57.971Z,15.40
2022-12-22T04:57:58.026Z,13.30
2022-12-22T04:58:57.947Z,20.60
2022-12-22T04:59:57.956Z,15.30
2022-12-22T05:00:58.008Z,16.10
2022-12-22T05:01:58.021Z,12.80
2022-12-22T05:02:58.115Z,14.00
2022-12-22T05:03:57.934Z,10.30
2022-12-22T05:04:57.925Z,10.80
2022-12-22T05:05:57.923Z,12.30
2022-12-22T05:06:57.913Z,13.80
2022-12-22T05:07:57.963Z,12.50
2022-12-22T05:08:57.901Z,12.00
2022-12-22T05:09:57.943Z,10.00
2022-12-22T05:10:57.890Z,11.00
2022-12-22T05:11:57.892Z,14.10
2022-12-22T05:12:58.008Z,13.60
2022-12-22T05:14:02.069Z,13.90
2022-12-22T05:14:59.851Z,13.70
2022-12-22T05:15:57.840Z,12.10
2022-12-22T05:16:57.860Z,18.80
2022-12-22T05:17:57.857Z,13.80
2022-12-22T05:18:57.837Z,16.00
2022-12-22T05:19:57.819Z,14.50
2022-12-22T05:20:57.812Z,15.40
2022-12-22T05:21:57.916Z,13.20
2022-12-22T05:22:57.804Z,12.30
2022-12-22T05:23:57.827Z,16.60
2022-12-22T05:24:57.789Z,11.30
2022-12-22T05:25:57.777Z,19.10
2022-12-22T05:26:57.775Z,19.30
2022-12-22T05:27:57.777Z,13.70
2022-12-22T05:28:57.757Z,19.60
2022-12-22T05:29:57.770Z,13.90
2022-12-22T05:30:57.859Z,13.20
2022-12-22T05:31:57.744Z,21.10
2022-12-22T05:32:57.729Z,13.10
2022-12-22T05:33:57.739Z,13.60
2022-12-22T05:34:57.720Z,13.60
2022-12-22T05:35:57.705Z,12.20
2022-12-22T05:36:57.717Z,15.10
2022-12-22T05:37:57.741Z,10.70
2022-12-22T05:38:57.678Z,12.10
2022-12-22T05:39:57.859Z,13.80
2022-12-22T05:41:03.638Z,14.20
2022-12-22T05:41:59.666Z,12.30
2022-12-22T05:42:57.664Z,14.30
2022-12-22T05:43:57.661Z,12.00
2022-12-22T05:44:57.646Z,14.30
2022-12-22T05:45:57.727Z,8.40
2022-12-22T05:46:57.657Z,8.50
2022-12-22T05:47:57.640Z,9.30
2022-12-22T05:48:57.623Z,7.30
2022-12-22T05:49:57.625Z,7.40
2022-12-22T05:50:57.612Z,6.80
2022-12-22T05:51:57.609Z,5.90
2022-12-22T05:52:57.601Z,7.00
2022-12-22T05:53:57.620Z,7.10
2022-12-22T05:54:57.592Z,6.10
2022-12-22T05:55:57.583Z,6.60
2022-12-22T05:56:57.572Z,5.40
2022-12-22T05:57:57.561Z,5.10
2022-12-22T05:58:57.576Z,5.50
2022-12-22T05:59:57.546Z,4.80
2022-12-22T06:00:57.565Z,4.60
2022-12-22T06:01:57.574Z,5.00
2022-12-22T06:02:57.646Z,5.90
2022-12-22T06:04:00.348Z,5.20
2022-12-22T06:04:58.524Z,4.80
2022-12-22T06:05:57.510Z,4.50
2022-12-22T06:06:57.496Z,4.30
2022-12-22T06:07:57.511Z,4.80
2022-12-22T06:08:57.503Z,4.30
2022-12-22T06:09:57.488Z,5.20
2022-12-22T06:10:57.527Z,4.60
2022-12-22T06:11:57.459Z,3.90
2022-12-22T06:12:57.488Z,3.50
2022-12-22T06:13:57.457Z,4.00
2022-12-22T06:14:57.477Z,3.20
2022-12-22T06:15:57.496Z,4.10
2022-12-22T06:16:57.451Z,6.40
2022-12-22T06:17:57.420Z,7.00
2022-12-22T06:18:57.436Z,5.00
2022-12-22T06:19:57.419Z,6.00
2022-12-22T06:20:57.414Z,5.40
2022-12-22T06:21:57.496Z,5.00
2022-12-22T06:22:57.392Z,13.20
2022-12-22T06:23:57.409Z,5.10
2022-12-22T06:24:57.436Z,4.80
2022-12-22T06:25:57.387Z,4.70
2022-12-22T06:26:57.368Z,3.90
2022-12-22T06:27:57.364Z,6.10
2022-12-22T06:28:57.376Z,4.90
2022-12-22T06:29:57.339Z,3.80
2022-12-22T06:30:57.418Z,4.40
2022-12-22T06:31:57.328Z,5.40
2022-12-22T06:32:57.322Z,8.10
2022-12-22T06:33:57.350Z,3.40
2022-12-22T06:34:57.310Z,2.60
2022-12-22T06:35:59.549Z,3.30
2022-12-22T06:36:58.492Z,3.20
2022-12-22T06:37:57.467Z,5.20
2022-12-22T06:38:57.298Z,3.20
2022-12-22T06:39:57.281Z,3.90
2022-12-22T06:40:57.340Z,4.50
2022-12-22T06:41:57.261Z,4.70
2022-12-22T06:43:02.137Z,5.50
2022-12-22T06:43:59.269Z,4.60
2022-12-22T06:44:57.256Z,3.50
2022-12-22T06:45:57.289Z,4.40
2022-12-22T06:46:57.249Z,4.70
2022-12-22T06:47:57.254Z,3.90
2022-12-22T06:48:57.235Z,5.90
2022-12-22T06:49:57.217Z,4.30
2022-12-22T06:50:57.215Z,5.00
2022-12-22T06:51:57.239Z,4.90
2022-12-22T06:52:57.188Z,6.10
2022-12-22T06:53:57.189Z,6.50
2022-12-22T06:54:57.199Z,6.40
2022-12-22T06:55:57.462Z,5.40
2022-12-22T06:56:57.203Z,5.10
2022-12-22T06:57:57.145Z,6.10
2022-12-22T06:58:57.154Z,5.60
2022-12-22T06:59:57.854Z,5.40
2022-12-22T07:00:58.159Z,5.80
2022-12-22T07:01:57.198Z,6.50
2022-12-22T07:02:57.340Z,6.10
2022-12-22T07:03:57.147Z,6.80
2022-12-22T07:04:57.115Z,12.30
2022-12-22T07:05:57.116Z,6.70
2022-12-22T07:06:57.093Z,22.30
2022-12-22T07:07:59.863Z,7.70
2022-12-22T07:08:58.119Z,8.40
2022-12-22T07:09:57.073Z,8.40
2022-12-22T07:10:57.073Z,8.80
2022-12-22T07:11:57.110Z,8.20
2022-12-22T07:12:57.066Z,10.30
2022-12-22T07:13:57.073Z,9.00
2022-12-22T07:14:57.050Z,7.60
2022-12-22T07:16:00.974Z,12.10
2022-12-22T07:16:58.061Z,7.60
2022-12-22T07:17:57.037Z,7.90
2022-12-22T07:18:57.032Z,9.10
2022-12-22T07:19:57.021Z,11.60
2022-12-22T07:20:57.017Z,9.20
2022-12-22T07:21:57.024Z,8.90
2022-12-22T07:22:56.992Z,11.10
2022-12-22T07:23:57.008Z,8.60
2022-12-22T07:24:56.979Z,9.70
2022-12-22T07:25:57.227Z,10.80
2022-12-22T07:26:56.962Z,10.00
2022-12-22T07:27:56.954Z,10.80
2022-12-22T07:28:57.004Z,12.90
2022-12-22T07:29:56.961Z,13.60
2022-12-22T07:30:56.966Z,8.60
2022-12-22T07:31:57.051Z,8.90
2022-12-22T07:32:59.735Z,10.50
2022-12-22T07:33:56.935Z,10.70
2022-12-22T07:35:03.147Z,12.40
2022-12-22T07:35:58.915Z,11.00
2022-12-22T07:36:56.894Z,9.60
2022-12-22T07:37:56.889Z,9.50
2022-12-22T07:38:56.924Z,9.00
2022-12-22T07:39:56.875Z,8.50
2022-12-22T07:41:01.206Z,8.20
2022-12-22T07:41:58.868Z,15.30
2022-12-22T07:42:56.882Z,17.10
2022-12-22T07:43:56.865Z,14.50
2022-12-22T07:44:56.844Z,9.00
2022-12-22T07:45:56.850Z,10.90
2022-12-22T07:46:56.936Z,9.40
2022-12-22T07:47:56.834Z,9.00
2022-12-22T07:48:56.866Z,10.80
2022-12-22T07:49:56.803Z,12.60
2022-12-22T07:50:56.798Z,19.00
2022-12-22T07:51:56.811Z,11.10
2022-12-22T07:52:56.785Z,12.60
2022-12-22T07:53:56.799Z,8.60
2022-12-22T07:54:56.779Z,15.20
2022-12-22T07:55:56.828Z,9.80
2022-12-22T07:56:56.780Z,7.90
2022-12-22T07:57:56.766Z,11.20
2022-12-22T07:58:56.759Z,7.10
2022-12-22T07:59:56.744Z,8.20
2022-12-22T08:00:56.777Z,8.40
2022-12-22T08:01:56.831Z,7.00
2022-12-22T08:02:56.903Z,9.00
2022-12-22T08:03:56.716Z,13.60
2022-12-22T08:04:56.804Z,10.60
2022-12-22T08:05:56.777Z,8.90
2022-12-22T08:06:56.728Z,21.20
2022-12-22T08:07:56.691Z,9.10
2022-12-22T08:08:56.696Z,5.10
2022-12-22T08:09:56.713Z,7.00
2022-12-22T08:10:56.663Z,6.80
2022-12-22T08:11:56.660Z,8.10
2022-12-22T08:12:56.746Z,5.60
2022-12-22T08:14:01.361Z,5.60
2022-12-22T08:14:58.644Z,5.60
2022-12-22T08:15:57.693Z,6.00
2022-12-22T08:16:56.667Z,7.00
2022-12-22T08:17:56.656Z,5.70
2022-12-22T08:18:56.648Z,6.80
2022-12-22T08:19:56.619Z,4.90
2022-12-22T08:20:56.631Z,4.10
2022-12-22T08:21:56.608Z,6.60
2022-12-22T08:22:56.578Z,8.60
2022-12-22T08:23:56.607Z,6.60
2022-12-22T08:24:56.616Z,10.10
2022-12-22T08:25:56.555Z,7.60
2022-12-22T08:26:56.599Z,7.00
2022-12-22T08:27:56.587Z,8.30
2022-12-22T08:28:56.556Z,4.90
2022-12-22T08:29:56.561Z,6.60
2022-12-22T08:30:56.563Z,4.70
2022-12-22T08:31:56.669Z,4.30
2022-12-22T08:32:56.523Z,9.40
2022-12-22T08:33:56.548Z,3.50
2022-12-22T08:34:56.520Z,6.60
2022-12-22T08:35:59.803Z,4.20
2022-12-22T08:36:57.529Z,5.80
2022-12-22T08:37:56.522Z,4.80
2022-12-22T08:38:56.685Z,3.20
2022-12-22T08:39:56.485Z,5.10
2022-12-22T08:40:56.471Z,5.80
2022-12-22T08:41:56.535Z,4.50
2022-12-22T08:42:57.258Z,4.50
2022-12-22T08:43:56.447Z,3.30
2022-12-22T08:44:56.607Z,3.40
2022-12-22T08:45:56.505Z,4.50
2022-12-22T08:46:56.529Z,3.00
2022-12-22T08:47:56.436Z,4.30
2022-12-22T08:48:56.486Z,3.30
2022-12-22T08:49:56.524Z,4.00
2022-12-22T08:50:56.416Z,3.90
2022-12-22T08:51:56.483Z,2.50
2022-12-22T08:52:56.414Z,2.80
2022-12-22T08:54:05.436Z,3.20
2022-12-22T08:54:58.385Z,2.50
2022-12-22T08:55:56.375Z,2.70
2022-12-22T08:56:57.198Z,3.10
2022-12-22T08:57:56.534Z,2.50
2022-12-22T08:58:56.375Z,2.30
2022-12-22T08:59:56.358Z,3.50
2022-12-22T09:00:56.413Z,3.00
2022-12-22T09:01:56.572Z,4.20
2022-12-22T09:02:56.480Z,1.80
2022-12-22T09:03:56.462Z,2.00
2022-12-22T09:04:56.335Z,1.90
2022-12-22T09:05:56.305Z,3.70
2022-12-22T09:06:57.266Z,1.80
2022-12-22T09:07:56.283Z,3.50
2022-12-22T09:08:56.317Z,2.70
2022-12-22T09:09:56.274Z,3.10
2022-12-22T09:10:56.265Z,2.50
2022-12-22T09:11:56.258Z,2.50
2022-12-22T09:12:56.265Z,1.90
2022-12-22T09:13:56.258Z,1.90
2022-12-22T09:14:56.273Z,2.10
2022-12-22T09:15:56.244Z,3.50
2022-12-22T09:16:56.314Z,4.80
2022-12-22T09:17:56.302Z,3.10
2022-12-22T09:18:56.213Z,3.40
2022-12-22T09:19:56.226Z,3.70
2022-12-22T09:20:57.215Z,6.80
2022-12-22T09:21:56.208Z,3.30
2022-12-22T09:22:56.190Z,3.20
2022-12-22T09:23:56.184Z,6.70
2022-12-22T09:24:56.171Z,5.40
2022-12-22T09:25:56.185Z,53.30
2022-12-22T09:26:56.165Z,33.50
2022-12-22T09:27:56.219Z,79.70
2022-12-22T09:28:56.157Z,97.50
2022-12-22T09:29:57.150Z,133.60
2022-12-22T09:30:56.194Z,79.00
2022-12-22T09:31:56.230Z,54.90
2022-12-22T09:32:56.165Z,112.70
2022-12-22T09:33:56.136Z,178.60
2022-12-22T09:34:56.127Z,178.20
2022-12-22T09:35:56.110Z,54.00
2022-12-22T09:36:56.158Z,34.10
2022-12-22T09:37:56.084Z,76.90
2022-12-22T09:38:56.119Z,19.70
2022-12-22T09:39:56.122Z,53.50
2022-12-22T09:40:56.085Z,63.30
2022-12-22T09:41:56.088Z,39.60
2022-12-22T09:42:56.066Z,19.50
2022-12-22T09:43:56.062Z,15.00
2022-12-22T09:44:56.046Z,71.10
2022-12-22T09:45:56.091Z,32.30
2022-12-22T09:46:56.043Z,32.90
2022-12-22T09:47:56.021Z,19.20
2022-12-22T09:48:56.064Z,35.20
2022-12-22T09:49:56.007Z,27.80
2022-12-22T09:50:56.001Z,30.70
2022-12-22T09:51:56.003Z,12.30
2022-12-22T09:52:56.023Z,7.60
2022-12-22T09:53:56.008Z,8.20
2022-12-22T09:54:55.984Z,8.00
2022-12-22T09:55:55.962Z,6.10
2022-12-22T09:56:55.985Z,3.10
2022-12-22T09:57:55.950Z,3.00
2022-12-22T09:58:55.968Z,3.50
2022-12-22T09:59:55.966Z,3.60
2022-12-22T10:00:55.988Z,3.70
2022-12-22T10:01:56.023Z,2.20
2022-12-22T10:02:55.984Z,3.20
2022-12-22T10:04:00.384Z,1.60
2022-12-22T10:04:57.924Z,3.20
2022-12-22T10:05:56.931Z,2.30
2022-12-22T10:06:55.897Z,2.50
2022-12-22T10:07:55.898Z,2.30
2022-12-22T10:08:55.935Z,3.70
2022-12-22T10:09:55.906Z,3.10
2022-12-22T10:10:56.795Z,3.30
2022-12-22T10:11:55.890Z,4.40
2022-12-22T10:12:55.929Z,5.80
2022-12-22T10:14:14.478Z,3.90
2022-12-22T10:14:59.569Z,2.40
2022-12-22T10:15:55.947Z,3.20
2022-12-22T10:16:55.902Z,2.80
2022-12-22T10:17:55.843Z,4.60
2022-12-22T10:18:55.825Z,4.30
2022-12-22T10:19:55.824Z,3.40
2022-12-22T10:20:55.831Z,3.10
2022-12-22T10:21:55.821Z,2.40
2022-12-22T10:22:55.824Z,4.90
2022-12-22T10:23:55.837Z,2.90
2022-12-22T10:24:55.827Z,4.20
2022-12-22T10:26:57.767Z,3.20
2022-12-22T10:27:56.219Z,2.40
2022-12-22T10:28:55.769Z,2.50
2022-12-22T10:29:55.769Z,3.20
2022-12-22T10:30:55.789Z,3.30
2022-12-22T10:31:55.798Z,3.20
2022-12-22T10:32:55.750Z,3.30
2022-12-22T10:33:55.812Z,3.30
2022-12-22T10:34:55.759Z,4.60
2022-12-22T10:35:55.716Z,5.10
2022-12-22T10:36:55.711Z,4.70
2022-12-22T10:37:55.760Z,3.50
2022-12-22T10:38:55.706Z,5.20
2022-12-22T10:39:55.793Z,3.60
2022-12-22T10:41:01.789Z,1.60
2022-12-22T10:41:57.718Z,2.20
2022-12-22T10:42:55.677Z,3.00
2022-12-22T10:43:55.802Z,2.80
2022-12-22T10:44:55.710Z,4.30
2022-12-22T10:45:56.291Z,3.90
2022-12-22T10:46:55.651Z,2.80
2022-12-22T10:47:55.685Z,4.30
2022-12-22T10:48:55.633Z,4.60
2022-12-22T10:50:41.415Z,2.30
2022-12-22T10:51:42.527Z,5.00
2022-12-22T10:52:42.580Z,3.20
2022-12-22T10:53:42.530Z,4.50
2022-12-22T10:54:42.512Z,2.70
2022-12-22T10:55:42.517Z,2.10
2022-12-22T10:56:43.230Z,4.30
2022-12-22T10:57:42.500Z,2.80
2022-12-22T10:58:42.480Z,1.90
2022-12-22T10:59:42.486Z,1.80
2022-12-22T11:00:42.492Z,1.80
2022-12-22T11:01:42.591Z,7.00
2022-12-22T11:02:42.691Z,5.30
2022-12-22T11:03:42.514Z,4.80
2022-12-22T11:04:42.447Z,3.80
2022-12-22T11:05:42.442Z,2.60
2022-12-22T11:06:42.500Z,1.90
2022-12-22T11:07:42.417Z,2.90
2022-12-22T11:08:49.152Z,3.40
2022-12-22T11:09:44.423Z,3.10
2022-12-22T11:10:42.410Z,1.80
2022-12-22T11:11:42.459Z,5.10
2022-12-22T11:12:42.552Z,3.80
2022-12-22T11:13:42.458Z,3.00
2022-12-22T11:14:42.396Z,2.90
2022-12-22T11:15:42.364Z,3.00
2022-12-22T11:16:42.506Z,5.00
2022-12-22T11:17:42.348Z,1.90
2022-12-22T11:18:42.412Z,2.40
2022-12-22T11:19:42.334Z,2.10
2022-12-22T11:20:42.320Z,2.30
2022-12-22T11:21:42.326Z,2.30
2022-12-22T11:22:42.311Z,1.90
2022-12-22T11:23:42.320Z,2.80
2022-12-22T11:24:42.296Z,2.50
2022-12-22T11:25:42.313Z,3.90
2022-12-22T11:26:42.288Z,6.30
2022-12-22T11:27:45.943Z,2.30
2022-12-22T11:28:43.284Z,2.70
2022-12-22T11:29:42.393Z,2.30
2022-12-22T11:30:42.313Z,1.90
2022-12-22T11:31:42.260Z,3.70
2022-12-22T11:32:42.342Z,3.70
2022-12-22T11:33:42.255Z,1.60
2022-12-22T11:34:42.242Z,4.60
2022-12-22T11:35:42.227Z,2.90
2022-12-22T11:36:42.256Z,1.80
2022-12-22T11:37:42.212Z,4.80
2022-12-22T11:38:42.232Z,5.30
2022-12-22T11:39:42.293Z,4.70
2022-12-22T11:40:42.207Z,3.40
2022-12-22T11:41:43.104Z,3.40
2022-12-22T11:42:42.236Z,7.70
2022-12-22T11:43:42.206Z,5.70
2022-12-22T11:44:42.186Z,5.50
2022-12-22T11:45:43.592Z,3.90
2022-12-22T11:46:43.282Z,3.40
2022-12-22T11:47:42.153Z,5.50
2022-12-22T11:48:42.180Z,4.50
2022-12-22T11:49:42.178Z,7.10
2022-12-22T11:50:59.175Z,7.80
2022-12-22T11:51:43.107Z,5.20
2022-12-22T11:52:43.112Z,8.70
2022-12-22T11:53:42.130Z,5.70
2022-12-22T11:54:42.132Z,5.50
2022-12-22T11:55:42.093Z,13.30
2022-12-22T11:56:42.092Z,5.30
2022-12-22T11:57:42.084Z,6.60
2022-12-22T11:58:42.179Z,4.80
2022-12-22T11:59:42.160Z,6.30
2022-12-22T12:01:12.726Z,3.80
2022-12-22T12:01:44.109Z,6.50
2022-12-22T12:02:42.101Z,8.60
2022-12-22T12:03:42.102Z,9.20
2022-12-22T12:04:42.069Z,5.20
2022-12-22T12:05:42.048Z,4.60
2022-12-22T12:06:42.087Z,5.70
2022-12-22T12:07:42.022Z,4.20
2022-12-22T12:08:42.044Z,5.00
2022-12-22T12:09:41.998Z,3.50
2022-12-22T12:10:42.005Z,5.20
2022-12-22T12:11:41.995Z,3.80
2022-12-22T12:12:41.971Z,3.30
2022-12-22T12:13:41.981Z,3.00
2022-12-22T12:14:41.974Z,4.10
2022-12-22T12:15:42.151Z,6.10
2022-12-22T12:16:42.077Z,6.50
2022-12-22T12:17:41.948Z,3.00
2022-12-22T12:18:41.957Z,3.90
2022-12-22T12:19:41.943Z,3.20
2022-12-22T12:20:41.931Z,4.60
2022-12-22T12:21:41.938Z,4.10
2022-12-22T12:22:41.936Z,3.20
2022-12-22T12:23:41.923Z,3.50
2022-12-22T12:24:41.897Z,4.10
2022-12-22T12:25:41.930Z,2.80
2022-12-22T12:26:41.940Z,2.40
2022-12-22T12:27:41.881Z,4.40
2022-12-22T12:28:41.895Z,4.10
2022-12-22T12:29:41.925Z,3.50
2022-12-22T12:30:41.850Z,4.20
2022-12-22T12:31:41.909Z,2.70
2022-12-22T12:32:41.890Z,3.90
2022-12-22T12:33:41.861Z,2.40
2022-12-22T12:34:41.863Z,2.80
2022-12-22T12:35:41.875Z,3.00
2022-12-22T12:36:41.823Z,2.90
2022-12-22T12:37:41.829Z,3.00
2022-12-22T12:39:07.617Z,3.40
2022-12-22T12:39:43.796Z,2.50
2022-12-22T12:40:41.814Z,3.10
2022-12-22T12:41:41.814Z,3.50
2022-12-22T12:42:41.799Z,4.00
2022-12-22T12:43:41.792Z,2.80
2022-12-22T12:44:41.783Z,2.70
2022-12-22T12:45:41.759Z,2.90
2022-12-22T12:46:41.827Z,3.50
2022-12-22T12:47:41.782Z,3.10
2022-12-22T12:48:41.730Z,2.60
2022-12-22T12:49:41.775Z,3.60
2022-12-22T12:50:41.721Z,3.10
2022-12-22T12:51:41.714Z,3.40
2022-12-22T12:52:41.720Z,3.40
2022-12-22T12:53:41.707Z,3.40
2022-12-22T12:54:41.971Z,3.30
2022-12-22T12:55:41.704Z,3.00
2022-12-22T12:56:41.750Z,3.10
2022-12-22T12:57:41.711Z,3.00
2022-12-22T12:58:41.681Z,3.20
2022-12-22T12:59:41.691Z,4.80
2022-12-22T13:00:47.842Z,2.90
2022-12-22T13:01:43.825Z,3.70
2022-12-22T13:02:51.694Z,2.80
2022-12-22T13:04:11.792Z,3.00
2022-12-22T13:04:43.712Z,3.90
2022-12-22T13:05:41.632Z,3.70
2022-12-22T13:06:48.328Z,3.60